sensor_id;sensor_type;location;lat;lon;timestamp;temperature;humidity
4964;DHT22;2497;47.410;9.740;2022-11-21T00:01:32;5.40;99.90
4964;DHT22;2497;47.410;9.740;2022-11-21T00:04:00;5.50;99.90
4964;DHT22;2497;47.410;9.740;2022-11-21T00:06:28;5.50;99.90
4964;DHT22;2497;47.410;9.740;2022-11-21T00:08:55;5.50;99.90
4964;DHT22;2497;47.410;9.740;2022-11-21T00:11:23;5.50;99.90
4964;DHT22;2497;47.410;9.740;2022-11-21T00:13:51;5.60;99.90
4964;DHT22;2497;47.410;9.740;2022-11-21T00:16:20;5.60;99.90
4964;DHT22;2497;47.410;9.740;2022-11-21T00:18:48;5.60;99.90
4964;DHT22;2497;47.410;9.740;2022-11-21T00:21:17;5.70;99.90
4964;DHT22;2497;47.410;9.740;2022-11-21T00:23:46;5.70;99.90
4964;DHT22;2497;47.410;9.740;2022-11-21T00:26:15;6.00;99.90
4964;DHT22;2497;47.410;9.740;2022-11-21T00:28:43;6.00;99.90
4964;DHT22;2497;47.410;9.740;2022-11-21T00:31:18;5.90;99.90
4964;DHT22;2497;47.410;9.740;2022-11-21T00:33:49;5.80;99.90
4964;DHT22;2497;47.410;9.740;2022-11-21T00:36:16;5.80;99.90
4964;DHT22;2497;47.410;9.740;2022-11-21T00:38:44;5.70;99.90
4964;DHT22;2497;47.410;9.740;2022-11-21T00:41:11;5.50;99.90
4964;DHT22;2497;47.410;9.740;2022-11-21T00:43:39;5.40;99.90
4964;DHT22;2497;47.410;9.740;2022-11-21T00:46:07;5.30;99.90
4964;DHT22;2497;47.410;9.740;2022-11-21T00:48:35;5.20;99.90
4964;DHT22;2497;47.410;9.740;2022-11-21T00:51:04;5.20;99.90
4964;DHT22;2497;47.410;9.740;2022-11-21T00:53:32;5.20;99.90
4964;DHT22;2497;47.410;9.740;2022-11-21T00:56:01;5.20;99.90
4964;DHT22;2497;47.410;9.740;2022-11-21T00:58:28;5.30;99.90
4964;DHT22;2497;47.410;9.740;2022-11-21T01:01:04;5.20;99.90
4964;DHT22;2497;47.410;9.740;2022-11-21T01:03:32;5.20;99.90
4964;DHT22;2497;47.410;9.740;2022-11-21T01:06:06;5.30;99.90
4964;DHT22;2497;47.410;9.740;2022-11-21T01:08:35;5.20;99.90
4964;DHT22;2497;47.410;9.740;2022-11-21T01:11:04;5.20;99.90
4964;DHT22;2497;47.410;9.740;2022-11-21T01:13:32;5.10;99.90
4964;DHT22;2497;47.410;9.740;2022-11-21T01:16:04;5.10;99.90
4964;DHT22;2497;47.410;9.740;2022-11-21T01:18:32;5.10;99.90
4964;DHT22;2497;47.410;9.740;2022-11-21T01:21:00;5.20;99.90
4964;DHT22;2497;47.410;9.740;2022-11-21T01:23:30;5.20;99.90
4964;DHT22;2497;47.410;9.740;2022-11-21T01:26:01;5.10;99.90
4964;DHT22;2497;47.410;9.740;2022-11-21T01:28:29;5.20;99.90
4964;DHT22;2497;47.410;9.740;2022-11-21T01:31:02;5.30;99.90
4964;DHT22;2497;47.410;9.740;2022-11-21T01:33:30;5.50;99.90
4964;DHT22;2497;47.410;9.740;2022-11-21T01:36:08;5.70;99.90
4964;DHT22;2497;47.410;9.740;2022-11-21T01:38:39;5.90;99.90
4964;DHT22;2497;47.410;9.740;2022-11-21T01:41:08;6.00;99.90
4964;DHT22;2497;47.410;9.740;2022-11-21T01:43:36;6.00;99.90
4964;DHT22;2497;47.410;9.740;2022-11-21T01:46:10;5.90;99.90
4964;DHT22;2497;47.410;9.740;2022-11-21T01:48:41;5.80;99.90
4964;DHT22;2497;47.410;9.740;2022-11-21T01:51:13;5.70;99.90
4964;DHT22;2497;47.410;9.740;2022-11-21T01:53:47;5.70;99.90
4964;DHT22;2497;47.410;9.740;2022-11-21T01:56:15;5.70;99.90
4964;DHT22;2497;47.410;9.740;2022-11-21T01:58:44;5.60;99.90
4964;DHT22;2497;47.410;9.740;2022-11-21T02:01:13;5.50;99.90
4964;DHT22;2497;47.410;9.740;2022-11-21T02:03:41;5.50;99.90
4964;DHT22;2497;47.410;9.740;2022-11-21T02:06:10;5.40;99.90
4964;DHT22;2497;47.410;9.740;2022-11-21T02:08:40;5.40;99.90
4964;DHT22;2497;47.410;9.740;2022-11-21T02:11:17;5.40;99.90
4964;DHT22;2497;47.410;9.740;2022-11-21T02:13:47;5.40;99.90
4964;DHT22;2497;47.410;9.740;2022-11-21T02:16:15;5.50;99.90
4964;DHT22;2497;47.410;9.740;2022-11-21T02:18:43;5.50;99.90
4964;DHT22;2497;47.410;9.740;2022-11-21T02:21:18;5.40;99.90
4964;DHT22;2497;47.410;9.740;2022-11-21T02:23:55;5.40;99.90
4964;DHT22;2497;47.410;9.740;2022-11-21T02:26:26;5.50;99.90
4964;DHT22;2497;47.410;9.740;2022-11-21T02:28:53;5.40;99.90
4964;DHT22;2497;47.410;9.740;2022-11-21T02:31:21;5.40;99.90
4964;DHT22;2497;47.410;9.740;2022-11-21T02:33:49;5.50;99.90
4964;DHT22;2497;47.410;9.740;2022-11-21T02:36:39;5.40;99.90
4964;DHT22;2497;47.410;9.740;2022-11-21T02:39:10;5.40;99.90
4964;DHT22;2497;47.410;9.740;2022-11-21T02:41:45;5.30;99.90
4964;DHT22;2497;47.410;9.740;2022-11-21T02:44:22;5.40;99.90
4964;DHT22;2497;47.410;9.740;2022-11-21T02:46:51;5.30;99.90
4964;DHT22;2497;47.410;9.740;2022-11-21T02:49:30;5.40;99.90
4964;DHT22;2497;47.410;9.740;2022-11-21T02:52:00;5.30;99.90
4964;DHT22;2497;47.410;9.740;2022-11-21T02:54:28;5.20;99.90
4964;DHT22;2497;47.410;9.740;2022-11-21T02:56:57;5.20;99.90
4964;DHT22;2497;47.410;9.740;2022-11-21T02:59:29;5.20;99.90
4964;DHT22;2497;47.410;9.740;2022-11-21T03:01:57;5.30;99.90
4964;DHT22;2497;47.410;9.740;2022-11-21T03:04:26;5.30;99.90
4964;DHT22;2497;47.410;9.740;2022-11-21T03:06:53;5.20;99.90
4964;DHT22;2497;47.410;9.740;2022-11-21T03:09:21;5.10;99.90
4964;DHT22;2497;47.410;9.740;2022-11-21T03:11:49;5.00;99.90
4964;DHT22;2497;47.410;9.740;2022-11-21T03:14:19;5.00;99.90
4964;DHT22;2497;47.410;9.740;2022-11-21T03:16:46;5.00;99.90
4964;DHT22;2497;47.410;9.740;2022-11-21T03:19:14;5.00;99.90
4964;DHT22;2497;47.410;9.740;2022-11-21T03:21:41;4.90;99.90
4964;DHT22;2497;47.410;9.740;2022-11-21T03:24:09;4.90;99.90
4964;DHT22;2497;47.410;9.740;2022-11-21T03:26:37;4.90;99.90
4964;DHT22;2497;47.410;9.740;2022-11-21T03:29:05;4.90;99.90
4964;DHT22;2497;47.410;9.740;2022-11-21T03:31:34;4.80;99.90
4964;DHT22;2497;47.410;9.740;2022-11-21T03:34:02;4.80;99.90
4964;DHT22;2497;47.410;9.740;2022-11-21T03:36:30;4.80;99.90
4964;DHT22;2497;47.410;9.740;2022-11-21T03:38:58;4.90;99.90
4964;DHT22;2497;47.410;9.740;2022-11-21T03:41:25;4.90;99.90
4964;DHT22;2497;47.410;9.740;2022-11-21T03:43:56;4.80;99.90
4964;DHT22;2497;47.410;9.740;2022-11-21T03:46:24;4.80;99.90
4964;DHT22;2497;47.410;9.740;2022-11-21T03:48:53;4.80;99.90
4964;DHT22;2497;47.410;9.740;2022-11-21T03:51:21;4.80;99.90
4964;DHT22;2497;47.410;9.740;2022-11-21T03:53:49;4.90;99.90
4964;DHT22;2497;47.410;9.740;2022-11-21T03:56:17;4.90;99.90
4964;DHT22;2497;47.410;9.740;2022-11-21T03:58:45;4.90;99.90
4964;DHT22;2497;47.410;9.740;2022-11-21T04:01:12;5.00;99.90
4964;DHT22;2497;47.410;9.740;2022-11-21T04:03:41;5.00;99.90
4964;DHT22;2497;47.410;9.740;2022-11-21T04:06:11;5.00;99.90
4964;DHT22;2497;47.410;9.740;2022-11-21T04:08:39;5.00;99.90
4964;DHT22;2497;47.410;9.740;2022-11-21T04:11:08;5.10;99.90
4964;DHT22;2497;47.410;9.740;2022-11-21T04:13:37;5.10;99.90
4964;DHT22;2497;47.410;9.740;2022-11-21T04:16:04;5.00;99.90
4964;DHT22;2497;47.410;9.740;2022-11-21T04:18:33;5.10;99.90
4964;DHT22;2497;47.410;9.740;2022-11-21T04:21:05;5.00;99.90
4964;DHT22;2497;47.410;9.740;2022-11-21T04:23:34;4.90;99.90
4964;DHT22;2497;47.410;9.740;2022-11-21T04:26:01;4.80;99.90
4964;DHT22;2497;47.410;9.740;2022-11-21T04:28:29;4.80;99.90
4964;DHT22;2497;47.410;9.740;2022-11-21T04:31:01;4.80;99.90
4964;DHT22;2497;47.410;9.740;2022-11-21T04:33:29;4.80;99.90
4964;DHT22;2497;47.410;9.740;2022-11-21T04:35:57;4.80;99.90
4964;DHT22;2497;47.410;9.740;2022-11-21T04:38:25;4.80;99.90
4964;DHT22;2497;47.410;9.740;2022-11-21T04:40:57;4.80;99.90
4964;DHT22;2497;47.410;9.740;2022-11-21T04:43:25;4.80;99.90
4964;DHT22;2497;47.410;9.740;2022-11-21T04:45:52;4.90;99.90
4964;DHT22;2497;47.410;9.740;2022-11-21T04:48:20;4.90;99.90
4964;DHT22;2497;47.410;9.740;2022-11-21T04:50:47;4.80;99.90
4964;DHT22;2497;47.410;9.740;2022-11-21T04:53:15;4.70;99.90
4964;DHT22;2497;47.410;9.740;2022-11-21T04:55:43;4.70;99.90
4964;DHT22;2497;47.410;9.740;2022-11-21T04:58:13;4.70;99.90
4964;DHT22;2497;47.410;9.740;2022-11-21T05:00:40;4.70;99.90
4964;DHT22;2497;47.410;9.740;2022-11-21T05:03:08;4.70;99.90
4964;DHT22;2497;47.410;9.740;2022-11-21T05:05:36;4.70;99.90
4964;DHT22;2497;47.410;9.740;2022-11-21T05:08:03;4.70;99.90
4964;DHT22;2497;47.410;9.740;2022-11-21T05:10:31;4.80;99.90
4964;DHT22;2497;47.410;9.740;2022-11-21T05:13:20;4.90;99.90
4964;DHT22;2497;47.410;9.740;2022-11-21T05:15:47;4.80;99.90
4964;DHT22;2497;47.410;9.740;2022-11-21T05:18:17;5.00;99.90
4964;DHT22;2497;47.410;9.740;2022-11-21T05:20:46;5.00;99.90
4964;DHT22;2497;47.410;9.740;2022-11-21T05:23:13;5.00;99.90
4964;DHT22;2497;47.410;9.740;2022-11-21T05:25:41;5.00;99.90
4964;DHT22;2497;47.410;9.740;2022-11-21T05:28:08;5.00;99.90
4964;DHT22;2497;47.410;9.740;2022-11-21T05:30:38;5.10;99.90
4964;DHT22;2497;47.410;9.740;2022-11-21T05:33:05;5.20;99.90
4964;DHT22;2497;47.410;9.740;2022-11-21T05:35:33;5.20;99.90
4964;DHT22;2497;47.410;9.740;2022-11-21T05:38:03;5.20;99.90
4964;DHT22;2497;47.410;9.740;2022-11-21T05:40:30;5.20;99.90
4964;DHT22;2497;47.410;9.740;2022-11-21T05:42:58;5.20;99.90
4964;DHT22;2497;47.410;9.740;2022-11-21T05:45:47;5.10;99.90
4964;DHT22;2497;47.410;9.740;2022-11-21T05:48:15;5.20;99.90
4964;DHT22;2497;47.410;9.740;2022-11-21T05:50:46;5.20;99.90
4964;DHT22;2497;47.410;9.740;2022-11-21T05:53:14;5.30;99.90
4964;DHT22;2497;47.410;9.740;2022-11-21T05:55:42;5.20;99.90
4964;DHT22;2497;47.410;9.740;2022-11-21T05:58:10;5.20;99.90
4964;DHT22;2497;47.410;9.740;2022-11-21T06:00:38;5.20;99.90
4964;DHT22;2497;47.410;9.740;2022-11-21T06:03:09;5.20;99.90
4964;DHT22;2497;47.410;9.740;2022-11-21T06:05:59;5.20;99.90
4964;DHT22;2497;47.410;9.740;2022-11-21T06:08:27;5.20;99.90
4964;DHT22;2497;47.410;9.740;2022-11-21T06:10:55;5.20;99.90
4964;DHT22;2497;47.410;9.740;2022-11-21T06:13:22;5.30;99.90
4964;DHT22;2497;47.410;9.740;2022-11-21T06:15:52;5.30;99.90
4964;DHT22;2497;47.410;9.740;2022-11-21T06:18:23;5.20;99.90
4964;DHT22;2497;47.410;9.740;2022-11-21T06:20:51;5.20;99.90
4964;DHT22;2497;47.410;9.740;2022-11-21T06:23:19;5.20;99.90
4964;DHT22;2497;47.410;9.740;2022-11-21T06:25:47;5.20;99.90
4964;DHT22;2497;47.410;9.740;2022-11-21T06:28:14;5.20;99.90
4964;DHT22;2497;47.410;9.740;2022-11-21T06:30:42;5.20;99.90
4964;DHT22;2497;47.410;9.740;2022-11-21T06:33:10;5.30;99.90
4964;DHT22;2497;47.410;9.740;2022-11-21T06:35:39;5.20;99.90
4964;DHT22;2497;47.410;9.740;2022-11-21T06:38:07;5.20;99.90
4964;DHT22;2497;47.410;9.740;2022-11-21T06:40:37;5.20;99.90
4964;DHT22;2497;47.410;9.740;2022-11-21T06:43:05;5.50;99.90
4964;DHT22;2497;47.410;9.740;2022-11-21T06:45:32;5.50;99.90
4964;DHT22;2497;47.410;9.740;2022-11-21T06:48:00;5.50;99.90
4964;DHT22;2497;47.410;9.740;2022-11-21T06:50:28;5.50;99.90
4964;DHT22;2497;47.410;9.740;2022-11-21T06:52:58;5.50;99.90
4964;DHT22;2497;47.410;9.740;2022-11-21T06:55:25;5.60;99.90
4964;DHT22;2497;47.410;9.740;2022-11-21T06:57:56;5.50;99.90
4964;DHT22;2497;47.410;9.740;2022-11-21T07:00:24;5.50;99.90
4964;DHT22;2497;47.410;9.740;2022-11-21T07:02:54;5.50;99.90
4964;DHT22;2497;47.410;9.740;2022-11-21T07:05:21;5.60;99.90
4964;DHT22;2497;47.410;9.740;2022-11-21T07:07:49;5.50;99.90
4964;DHT22;2497;47.410;9.740;2022-11-21T07:10:19;5.50;99.90
4964;DHT22;2497;47.410;9.740;2022-11-21T07:12:46;5.50;99.90
4964;DHT22;2497;47.410;9.740;2022-11-21T07:15:32;5.40;99.90
4964;DHT22;2497;47.410;9.740;2022-11-21T07:17:59;5.40;99.90
4964;DHT22;2497;47.410;9.740;2022-11-21T07:20:27;5.50;99.90
4964;DHT22;2497;47.410;9.740;2022-11-21T07:22:54;5.50;99.90
4964;DHT22;2497;47.410;9.740;2022-11-21T07:25:24;5.60;99.90
4964;DHT22;2497;47.410;9.740;2022-11-21T07:27:51;5.60;99.90
4964;DHT22;2497;47.410;9.740;2022-11-21T07:30:19;5.70;99.90
4964;DHT22;2497;47.410;9.740;2022-11-21T07:32:48;5.70;99.90
4964;DHT22;2497;47.410;9.740;2022-11-21T07:35:20;5.70;99.90
4964;DHT22;2497;47.410;9.740;2022-11-21T07:37:49;5.70;99.90
4964;DHT22;2497;47.410;9.740;2022-11-21T07:40:17;5.70;99.90
4964;DHT22;2497;47.410;9.740;2022-11-21T07:42:47;5.80;99.90
4964;DHT22;2497;47.410;9.740;2022-11-21T07:45:15;5.80;99.90
4964;DHT22;2497;47.410;9.740;2022-11-21T07:47:43;5.90;99.90
4964;DHT22;2497;47.410;9.740;2022-11-21T07:50:11;5.80;99.90
4964;DHT22;2497;47.410;9.740;2022-11-21T07:52:39;5.90;99.90
4964;DHT22;2497;47.410;9.740;2022-11-21T07:55:07;5.90;99.90
4964;DHT22;2497;47.410;9.740;2022-11-21T07:57:35;5.90;99.90
4964;DHT22;2497;47.410;9.740;2022-11-21T08:00:05;6.00;99.90
4964;DHT22;2497;47.410;9.740;2022-11-21T08:02:33;5.90;99.90
4964;DHT22;2497;47.410;9.740;2022-11-21T08:05:01;5.90;99.90
4964;DHT22;2497;47.410;9.740;2022-11-21T08:07:28;5.90;99.90
4964;DHT22;2497;47.410;9.740;2022-11-21T08:09:56;5.80;99.90
4964;DHT22;2497;47.410;9.740;2022-11-21T08:12:23;5.90;99.90
4964;DHT22;2497;47.410;9.740;2022-11-21T08:14:51;6.00;99.90
4964;DHT22;2497;47.410;9.740;2022-11-21T08:17:20;5.90;99.90
4964;DHT22;2497;47.410;9.740;2022-11-21T08:19:47;6.00;99.90
4964;DHT22;2497;47.410;9.740;2022-11-21T08:22:15;6.20;99.90
4964;DHT22;2497;47.410;9.740;2022-11-21T08:24:42;6.20;99.90
4964;DHT22;2497;47.410;9.740;2022-11-21T08:27:11;6.30;99.90
4964;DHT22;2497;47.410;9.740;2022-11-21T08:29:39;6.40;99.90
4964;DHT22;2497;47.410;9.740;2022-11-21T08:32:06;6.40;99.90
4964;DHT22;2497;47.410;9.740;2022-11-21T08:34:35;6.40;99.90
4964;DHT22;2497;47.410;9.740;2022-11-21T08:37:03;6.60;99.90
4964;DHT22;2497;47.410;9.740;2022-11-21T08:39:31;6.60;99.90
4964;DHT22;2497;47.410;9.740;2022-11-21T08:41:59;6.70;99.90
4964;DHT22;2497;47.410;9.740;2022-11-21T08:44:30;6.70;99.90
4964;DHT22;2497;47.410;9.740;2022-11-21T08:46:59;6.70;99.90
4964;DHT22;2497;47.410;9.740;2022-11-21T08:49:27;6.80;99.90
4964;DHT22;2497;47.410;9.740;2022-11-21T08:51:56;6.70;99.90
4964;DHT22;2497;47.410;9.740;2022-11-21T08:54:24;6.60;99.90
4964;DHT22;2497;47.410;9.740;2022-11-21T08:56:51;6.60;99.90
4964;DHT22;2497;47.410;9.740;2022-11-21T08:59:19;6.60;99.90
4964;DHT22;2497;47.410;9.740;2022-11-21T09:01:47;6.60;99.90
4964;DHT22;2497;47.410;9.740;2022-11-21T09:04:14;6.70;99.90
4964;DHT22;2497;47.410;9.740;2022-11-21T09:06:42;6.80;99.90
4964;DHT22;2497;47.410;9.740;2022-11-21T09:09:12;6.70;99.90
4964;DHT22;2497;47.410;9.740;2022-11-21T09:11:39;6.60;99.90
4964;DHT22;2497;47.410;9.740;2022-11-21T09:14:07;6.60;99.90
4964;DHT22;2497;47.410;9.740;2022-11-21T09:16:52;6.70;99.90
4964;DHT22;2497;47.410;9.740;2022-11-21T09:19:32;6.90;99.90
4964;DHT22;2497;47.410;9.740;2022-11-21T09:22:00;6.90;99.90
4964;DHT22;2497;47.410;9.740;2022-11-21T09:24:29;7.00;99.90
4964;DHT22;2497;47.410;9.740;2022-11-21T09:26:58;7.10;99.90
4964;DHT22;2497;47.410;9.740;2022-11-21T09:29:26;7.20;99.90
4964;DHT22;2497;47.410;9.740;2022-11-21T09:31:53;7.30;99.90
4964;DHT22;2497;47.410;9.740;2022-11-21T09:34:21;7.30;99.90
4964;DHT22;2497;47.410;9.740;2022-11-21T09:36:48;7.40;99.90
4964;DHT22;2497;47.410;9.740;2022-11-21T09:39:16;7.30;99.90
4964;DHT22;2497;47.410;9.740;2022-11-21T09:41:56;7.40;99.90
4964;DHT22;2497;47.410;9.740;2022-11-21T09:47:31;7.20;99.90
4964;DHT22;2497;47.410;9.740;2022-11-21T09:50:00;7.30;99.90
4964;DHT22;2497;47.410;9.740;2022-11-21T09:52:34;7.50;99.90
4964;DHT22;2497;47.410;9.740;2022-11-21T09:55:05;7.80;99.90
4964;DHT22;2497;47.410;9.740;2022-11-21T09:57:35;7.90;99.90
4964;DHT22;2497;47.410;9.740;2022-11-21T10:00:11;8.00;99.90
4964;DHT22;2497;47.410;9.740;2022-11-21T10:02:40;7.70;99.90
4964;DHT22;2497;47.410;9.740;2022-11-21T10:05:12;7.90;99.90
4964;DHT22;2497;47.410;9.740;2022-11-21T10:07:41;7.60;99.90
4964;DHT22;2497;47.410;9.740;2022-11-21T10:10:17;7.60;99.90
4964;DHT22;2497;47.410;9.740;2022-11-21T10:12:58;7.90;99.90
4964;DHT22;2497;47.410;9.740;2022-11-21T10:15:35;8.20;99.90
4964;DHT22;2497;47.410;9.740;2022-11-21T10:18:34;8.50;99.90
4964;DHT22;2497;47.410;9.740;2022-11-21T10:21:12;8.50;99.90
4964;DHT22;2497;47.410;9.740;2022-11-21T10:24:03;8.40;99.90
4964;DHT22;2497;47.410;9.740;2022-11-21T10:26:39;8.20;99.90
4964;DHT22;2497;47.410;9.740;2022-11-21T10:29:13;8.10;99.90
4964;DHT22;2497;47.410;9.740;2022-11-21T10:31:42;8.00;99.90
4964;DHT22;2497;47.410;9.740;2022-11-21T10:34:14;8.00;99.90
4964;DHT22;2497;47.410;9.740;2022-11-21T10:36:46;8.10;99.90
4964;DHT22;2497;47.410;9.740;2022-11-21T10:39:19;8.10;99.90
4964;DHT22;2497;47.410;9.740;2022-11-21T10:41:50;8.20;99.90
4964;DHT22;2497;47.410;9.740;2022-11-21T10:44:25;8.20;99.90
4964;DHT22;2497;47.410;9.740;2022-11-21T10:47:15;8.30;99.90
4964;DHT22;2497;47.410;9.740;2022-11-21T10:49:56;8.50;99.90
4964;DHT22;2497;47.410;9.740;2022-11-21T10:52:30;8.70;99.90
4964;DHT22;2497;47.410;9.740;2022-11-21T10:55:06;8.80;99.90
4964;DHT22;2497;47.410;9.740;2022-11-21T10:57:41;8.80;99.90
4964;DHT22;2497;47.410;9.740;2022-11-21T11:00:20;8.90;99.90
4964;DHT22;2497;47.410;9.740;2022-11-21T11:03:03;8.80;99.90
4964;DHT22;2497;47.410;9.740;2022-11-21T11:05:33;8.90;99.90
4964;DHT22;2497;47.410;9.740;2022-11-21T11:08:04;8.90;99.90
4964;DHT22;2497;47.410;9.740;2022-11-21T11:10:33;9.00;99.90
4964;DHT22;2497;47.410;9.740;2022-11-21T11:13:02;9.10;99.90
4964;DHT22;2497;47.410;9.740;2022-11-21T11:15:58;9.10;99.90
4964;DHT22;2497;47.410;9.740;2022-11-21T11:18:27;9.20;99.90
4964;DHT22;2497;47.410;9.740;2022-11-21T11:21:10;9.30;99.90
4964;DHT22;2497;47.410;9.740;2022-11-21T11:23:39;9.30;99.90
4964;DHT22;2497;47.410;9.740;2022-11-21T11:26:19;9.30;99.90
4964;DHT22;2497;47.410;9.740;2022-11-21T11:28:47;9.40;99.90
4964;DHT22;2497;47.410;9.740;2022-11-21T11:31:16;9.50;99.90
4964;DHT22;2497;47.410;9.740;2022-11-21T11:33:52;9.60;99.90
4964;DHT22;2497;47.410;9.740;2022-11-21T11:36:36;9.90;99.90
4964;DHT22;2497;47.410;9.740;2022-11-21T11:39:16;10.20;99.90
4964;DHT22;2497;47.410;9.740;2022-11-21T11:42:12;10.60;99.90
4964;DHT22;2497;47.410;9.740;2022-11-21T11:45:14;11.30;99.90
4964;DHT22;2497;47.410;9.740;2022-11-21T11:48:03;11.80;99.90
4964;DHT22;2497;47.410;9.740;2022-11-21T11:50:39;12.50;99.90
4964;DHT22;2497;47.410;9.740;2022-11-21T11:53:12;13.70;99.90
4964;DHT22;2497;47.410;9.740;2022-11-21T11:55:45;14.70;99.90
4964;DHT22;2497;47.410;9.740;2022-11-21T11:58:21;15.60;99.90
4964;DHT22;2497;47.410;9.740;2022-11-21T12:00:54;16.00;99.90
4964;DHT22;2497;47.410;9.740;2022-11-21T12:03:32;16.60;99.90
4964;DHT22;2497;47.410;9.740;2022-11-21T12:06:04;17.00;99.90
4964;DHT22;2497;47.410;9.740;2022-11-21T12:08:41;17.90;99.90
4964;DHT22;2497;47.410;9.740;2022-11-21T12:11:19;17.70;99.90
4964;DHT22;2497;47.410;9.740;2022-11-21T12:14:13;17.90;99.90
4964;DHT22;2497;47.410;9.740;2022-11-21T12:17:05;18.50;99.90
4964;DHT22;2497;47.410;9.740;2022-11-21T12:19:37;18.60;99.90
4964;DHT22;2497;47.410;9.740;2022-11-21T12:22:08;18.40;99.90
4964;DHT22;2497;47.410;9.740;2022-11-21T12:24:36;16.80;99.90
4964;DHT22;2497;47.410;9.740;2022-11-21T12:27:16;15.50;99.90
4964;DHT22;2497;47.410;9.740;2022-11-21T12:29:57;15.10;99.90
4964;DHT22;2497;47.410;9.740;2022-11-21T12:32:40;15.30;99.90
4964;DHT22;2497;47.410;9.740;2022-11-21T12:35:23;14.70;99.90
4964;DHT22;2497;47.410;9.740;2022-11-21T12:38:01;14.60;99.90
4964;DHT22;2497;47.410;9.740;2022-11-21T12:40:46;14.40;99.90
4964;DHT22;2497;47.410;9.740;2022-11-21T12:43:22;14.00;99.90
4964;DHT22;2497;47.410;9.740;2022-11-21T12:45:58;13.80;99.90
4964;DHT22;2497;47.410;9.740;2022-11-21T12:48:39;13.70;99.90
4964;DHT22;2497;47.410;9.740;2022-11-21T12:51:42;13.30;99.90
4964;DHT22;2497;47.410;9.740;2022-11-21T12:57:43;12.70;99.90
4964;DHT22;2497;47.410;9.740;2022-11-21T13:00:18;12.30;99.90
4964;DHT22;2497;47.410;9.740;2022-11-21T13:03:05;12.00;99.90
4964;DHT22;2497;47.410;9.740;2022-11-21T13:05:44;12.10;99.90
4964;DHT22;2497;47.410;9.740;2022-11-21T13:08:18;12.20;99.90
4964;DHT22;2497;47.410;9.740;2022-11-21T13:10:53;12.00;99.90
4964;DHT22;2497;47.410;9.740;2022-11-21T13:13:42;12.10;99.90
4964;DHT22;2497;47.410;9.740;2022-11-21T13:16:17;12.30;99.90
4964;DHT22;2497;47.410;9.740;2022-11-21T13:19:10;12.40;99.90
4964;DHT22;2497;47.410;9.740;2022-11-21T13:21:40;12.50;99.90
4964;DHT22;2497;47.410;9.740;2022-11-21T13:24:09;12.40;99.90
4964;DHT22;2497;47.410;9.740;2022-11-21T13:26:50;12.20;99.90
4964;DHT22;2497;47.410;9.740;2022-11-21T13:29:18;12.10;99.90
4964;DHT22;2497;47.410;9.740;2022-11-21T13:31:46;11.80;99.90
4964;DHT22;2497;47.410;9.740;2022-11-21T13:34:34;11.80;99.90
4964;DHT22;2497;47.410;9.740;2022-11-21T13:37:02;12.10;99.90
4964;DHT22;2497;47.410;9.740;2022-11-21T13:39:32;12.00;99.90
4964;DHT22;2497;47.410;9.740;2022-11-21T13:42:05;12.40;99.90
4964;DHT22;2497;47.410;9.740;2022-11-21T13:44:50;12.50;99.90
4964;DHT22;2497;47.410;9.740;2022-11-21T13:47:57;12.80;99.90
4964;DHT22;2497;47.410;9.740;2022-11-21T13:56:34;11.90;99.90
4964;DHT22;2497;47.410;9.740;2022-11-21T13:59:13;11.60;99.90
4964;DHT22;2497;47.410;9.740;2022-11-21T14:04:56;11.00;99.90
4964;DHT22;2497;47.410;9.740;2022-11-21T14:07:28;10.90;99.90
4964;DHT22;2497;47.410;9.740;2022-11-21T14:09:57;10.80;99.90
4964;DHT22;2497;47.410;9.740;2022-11-21T14:12:29;10.80;99.90
4964;DHT22;2497;47.410;9.740;2022-11-21T14:15:21;10.90;99.90
4964;DHT22;2497;47.410;9.740;2022-11-21T14:17:52;10.70;99.90
4964;DHT22;2497;47.410;9.740;2022-11-21T14:20:23;10.60;99.90
4964;DHT22;2497;47.410;9.740;2022-11-21T14:22:57;10.30;99.90
4964;DHT22;2497;47.410;9.740;2022-11-21T14:25:34;10.10;99.90
4964;DHT22;2497;47.410;9.740;2022-11-21T14:28:05;9.90;99.90
4964;DHT22;2497;47.410;9.740;2022-11-21T14:30:36;9.80;99.90
4964;DHT22;2497;47.410;9.740;2022-11-21T14:33:23;9.50;99.90
4964;DHT22;2497;47.410;9.740;2022-11-21T14:35:52;9.40;99.90
4964;DHT22;2497;47.410;9.740;2022-11-21T14:38:21;9.40;99.90
4964;DHT22;2497;47.410;9.740;2022-11-21T14:40:49;9.40;99.90
4964;DHT22;2497;47.410;9.740;2022-11-21T14:43:32;9.30;99.90
4964;DHT22;2497;47.410;9.740;2022-11-21T14:45:59;9.30;99.90
4964;DHT22;2497;47.410;9.740;2022-11-21T14:48:28;9.40;99.90
4964;DHT22;2497;47.410;9.740;2022-11-21T14:50:57;9.30;99.90
4964;DHT22;2497;47.410;9.740;2022-11-21T14:53:26;9.10;99.90
4964;DHT22;2497;47.410;9.740;2022-11-21T14:55:54;9.00;99.90
4964;DHT22;2497;47.410;9.740;2022-11-21T14:58:21;8.80;99.90
4964;DHT22;2497;47.410;9.740;2022-11-21T15:01:04;8.70;99.90
4964;DHT22;2497;47.410;9.740;2022-11-21T15:03:32;8.50;99.90
4964;DHT22;2497;47.410;9.740;2022-11-21T15:06:01;8.30;99.90
4964;DHT22;2497;47.410;9.740;2022-11-21T15:08:29;8.20;99.90
4964;DHT22;2497;47.410;9.740;2022-11-21T15:10:59;7.90;99.90
4964;DHT22;2497;47.410;9.740;2022-11-21T15:13:28;7.90;99.90
4964;DHT22;2497;47.410;9.740;2022-11-21T15:16:03;7.70;99.90
4964;DHT22;2497;47.410;9.740;2022-11-21T15:18:31;7.60;99.90
4964;DHT22;2497;47.410;9.740;2022-11-21T15:21:00;7.50;99.90
4964;DHT22;2497;47.410;9.740;2022-11-21T15:23:31;7.50;99.90
4964;DHT22;2497;47.410;9.740;2022-11-21T15:26:00;7.50;99.90
4964;DHT22;2497;47.410;9.740;2022-11-21T15:28:28;7.50;99.90
4964;DHT22;2497;47.410;9.740;2022-11-21T15:31:17;7.40;99.90
4964;DHT22;2497;47.410;9.740;2022-11-21T15:33:56;7.50;99.90
4964;DHT22;2497;47.410;9.740;2022-11-21T15:36:24;7.40;99.90
4964;DHT22;2497;47.410;9.740;2022-11-21T15:38:54;7.30;99.90
4964;DHT22;2497;47.410;9.740;2022-11-21T15:41:32;7.20;99.90
4964;DHT22;2497;47.410;9.740;2022-11-21T15:44:20;7.20;99.90
4964;DHT22;2497;47.410;9.740;2022-11-21T15:46:52;7.20;99.90
4964;DHT22;2497;47.410;9.740;2022-11-21T15:49:19;7.10;99.90
4964;DHT22;2497;47.410;9.740;2022-11-21T15:51:49;7.10;99.90
4964;DHT22;2497;47.410;9.740;2022-11-21T15:54:17;7.10;99.90
4964;DHT22;2497;47.410;9.740;2022-11-21T15:56:45;7.10;99.90
4964;DHT22;2497;47.410;9.740;2022-11-21T15:59:13;7.10;99.90
4964;DHT22;2497;47.410;9.740;2022-11-21T16:01:41;7.00;99.90
4964;DHT22;2497;47.410;9.740;2022-11-21T16:04:11;7.00;99.90
4964;DHT22;2497;47.410;9.740;2022-11-21T16:06:39;6.90;99.90
4964;DHT22;2497;47.410;9.740;2022-11-21T16:09:06;6.90;99.90
4964;DHT22;2497;47.410;9.740;2022-11-21T16:11:35;6.80;99.90
4964;DHT22;2497;47.410;9.740;2022-11-21T16:14:06;6.80;99.90
4964;DHT22;2497;47.410;9.740;2022-11-21T16:16:36;6.80;99.90
4964;DHT22;2497;47.410;9.740;2022-11-21T16:19:04;6.80;99.90
4964;DHT22;2497;47.410;9.740;2022-11-21T16:21:37;6.80;99.90
4964;DHT22;2497;47.410;9.740;2022-11-21T16:24:05;6.80;99.90
4964;DHT22;2497;47.410;9.740;2022-11-21T16:26:32;6.60;99.90
4964;DHT22;2497;47.410;9.740;2022-11-21T16:29:01;6.50;99.90
4964;DHT22;2497;47.410;9.740;2022-11-21T16:31:30;6.50;99.90
4964;DHT22;2497;47.410;9.740;2022-11-21T16:33:58;6.40;99.90
4964;DHT22;2497;47.410;9.740;2022-11-21T16:36:28;6.40;99.90
4964;DHT22;2497;47.410;9.740;2022-11-21T16:38:58;6.40;99.90
4964;DHT22;2497;47.410;9.740;2022-11-21T16:41:27;6.30;99.90
4964;DHT22;2497;47.410;9.740;2022-11-21T16:43:54;6.30;99.90
4964;DHT22;2497;47.410;9.740;2022-11-21T16:46:24;6.30;99.90
4964;DHT22;2497;47.410;9.740;2022-11-21T16:48:57;6.30;99.90
4964;DHT22;2497;47.410;9.740;2022-11-21T16:51:26;6.30;99.90
4964;DHT22;2497;47.410;9.740;2022-11-21T16:53:53;6.20;99.90
4964;DHT22;2497;47.410;9.740;2022-11-21T16:56:26;6.20;99.90
4964;DHT22;2497;47.410;9.740;2022-11-21T16:58:53;6.10;99.90